Time;durP1;ratioP1;P1;durP2;ratioP2;P2;SDS_P1;SDS_P2;PMS_P1;PMS_P2;Temp;Humidity;BMP_temperature;BMP_pressure;BME280_temperature;BME280_humidity;BME280_pressure;Samples;Min_cycle;Max_cycle;Signal;HPM_P1;HPM_P2
2022/12/15 00:40:57;;;;;;;40.28;27.08;;;;;;;-7.75;100.00;65933.66;4993291;28;20136;-81
2022/12/15 00:43:24;;;;;;;41.97;23.60;;;;;;;-7.64;100.00;65947.97;5007961;28;20069;-81
2022/12/15 00:48:33;;;;;;;35.17;22.15;;;;;;;-7.69;100.00;65940.34;4993258;28;20401;-81
2022/12/15 00:50:58;;;;;;;39.88;25.88;;;;;;;-7.68;100.00;65940.91;4993837;28;20042;-81
2022/12/15 01:21:04;;;;;;;42.78;29.13;;;;;;;-7.26;100.00;65987.25;4991947;28;20205;-81
2022/12/15 01:23:31;;;;;;;39.85;25.30;;;;;;;-7.20;100.00;65993.94;4988072;28;20078;-80
2022/12/15 01:25:56;;;;;;;45.22;29.90;;;;;;;-6.98;100.00;66022.56;4991816;28;20448;-81
2022/12/15 01:28:22;;;;;;;42.95;27.23;;;;;;;-7.02;100.00;66013.47;4997352;28;20043;-81
2022/12/15 01:30:48;;;;;;;46.05;27.63;;;;;;;-6.92;100.00;66026.69;4996052;28;20073;-81
2022/12/15 01:33:16;;;;;;;38.47;25.77;;;;;;;-6.96;100.00;66020.19;4998206;28;20062;-81
2022/12/15 01:35:42;;;;;;;40.78;27.45;;;;;;;-7.13;100.00;66006.38;5008609;28;20034;-80
2022/12/15 01:38:08;;;;;;;42.03;24.77;;;;;;;-7.32;100.00;65980.53;4997407;28;20050;-81
2022/12/15 01:40:43;;;;;;;39.53;27.17;;;;;;;-7.24;100.00;65994.09;4994540;28;20125;-82
2022/12/15 01:43:13;;;;;;;41.60;27.77;;;;;;;-7.06;100.00;66011.59;4996017;28;20057;-81
2022/12/15 01:45:44;;;;;;;43.80;28.38;;;;;;;-6.89;100.00;66027.44;4994245;28;20055;-81
2022/12/15 01:48:11;;;;;;;40.08;26.67;;;;;;;;;;4997348;28;20085;-81
2022/12/15 01:51:04;;;;;;;41.08;24.05;;;;;;;-6.79;100.00;66038.59;4990360;28;20088;-81
2022/12/15 01:53:33;;;;;;;36.40;23.38;;;;;;;-7.09;100.00;66008.25;4996322;28;20038;-81
2022/12/15 01:55:59;;;;;;;38.65;27.02;;;;;;;-7.07;100.00;66010.50;4994176;28;20065;-80
2022/12/15 01:58:25;;;;;;;35.97;23.02;;;;;;;-7.10;100.00;66007.69;4995565;28;20053;-80
2022/12/15 02:00:51;;;;;;;35.60;24.30;;;;;;;-6.87;100.00;66032.81;4995126;28;20101;-81
2022/12/15 02:03:17;;;;;;;35.20;19.67;;;;;;;-6.89;100.00;66033.19;4990223;28;20133;-81
2022/12/15 02:05:43;;;;;;;36.67;23.38;;;;;;;-6.87;100.00;66030.25;4993709;28;20038;-80
2022/12/15 02:08:09;;;;;;;37.85;24.27;;;;;;;-6.97;100.00;66015.91;4994673;28;20047;-81
2022/12/15 02:10:59;;;;;;;37.47;23.10;;;;;;;-7.05;100.00;66013.28;4995525;28;20030;-81
2022/12/15 02:13:39;;;;;;;33.95;22.67;;;;;;;-6.89;100.00;66027.44;4981765;28;20048;-81
2022/12/15 02:16:17;;;;;;;36.50;22.80;;;;;;;-6.89;100.00;66027.44;5006140;28;20074;-81
2022/12/15 02:18:54;;;;;;;33.75;22.58;;;;;;;-6.79;100.00;66038.06;4995370;28;20034;-80
2022/12/15 02:21:40;;;;;;;33.50;23.55;;;;;;;-6.76;100.00;66041.97;4995042;28;20049;-81
2022/12/15 02:24:16;;;;;;;30.33;20.48;;;;;;;-6.84;100.00;66033.59;5006157;28;20042;-81
2022/12/15 02:27:13;;;;;;;36.33;22.85;;;;;;;-6.90;100.00;66028.91;4985631;28;20741;-81
2022/12/15 02:30:15;;;;;;;31.08;19.33;;;;;;;-7.16;100.00;65995.25;4992500;28;20494;-80
2022/12/15 02:32:49;;;;;;;34.35;21.55;;;;;;;-7.39;100.00;65970.72;4994975;28;20038;-82
2022/12/15 02:35:23;;;;;;;32.85;21.10;;;;;;;-7.60;100.00;65947.81;4994481;28;20615;-81
2022/12/15 02:37:49;;;;;;;34.05;21.83;;;;;;;-7.59;100.00;65948.38;4996020;28;20053;-81
2022/12/15 02:40:15;;;;;;;34.88;22.23;;;;;;;-7.55;100.00;65958.00;4994201;28;20030;-81
2022/12/15 02:43:01;;;;;;;36.90;22.48;;;;;;;-7.55;100.00;65955.97;4994561;28;20193;-81
2022/12/15 02:46:00;;;;;;;37.20;23.02;;;;;;;-7.56;100.00;65954.88;4994944;28;20054;-80
2022/12/15 02:48:54;;;;;;;38.17;25.30;;;;;;;-7.36;100.00;65978.66;5000550;28;20038;-81
2022/12/15 02:51:39;;;;;;;34.10;21.50;;;;;;;-7.45;100.00;65963.44;4972998;28;20434;-81
2022/12/15 02:54:23;;;;;;;33.55;21.85;;;;;;;-7.43;100.00;65970.84;4975811;28;20122;-81
2022/12/15 02:57:14;;;;;;;37.53;23.73;;;;;;;-7.41;100.00;65975.66;4994815;28;20044;-81
2022/12/15 02:59:54;;;;;;;35.63;23.58;;;;;;;-7.40;100.00;65972.16;4988082;28;20097;-81
2022/12/15 03:02:23;;;;;;;35.30;21.35;;;;;;;-7.45;100.00;65969.19;4988679;28;20592;-82
2022/12/15 03:04:48;;;;;;;;;;;;;;;-7.39;100.00;65973.28;4988272;28;20038;-79
2022/12/15 03:07:13;;;;;;;37.97;25.27;;;;;;;-7.49;100.00;65962.66;5009802;28;20363;-81
2022/12/15 03:09:39;;;;;;;35.83;23.88;;;;;;;-7.45;100.00;65968.59;4999631;28;20075;-80
2022/12/15 03:12:05;;;;;;;33.75;21.58;;;;;;;-7.49;100.00;65965.25;4989379;28;20510;-81
2022/12/15 03:14:30;;;;;;;31.80;21.85;;;;;;;-7.45;100.00;65963.44;4987304;28;20096;-80
2022/12/15 03:16:56;;;;;;;33.67;20.83;;;;;;;-7.64;100.00;65945.94;4989981;28;20066;-80
2022/12/15 03:19:21;;;;;;;39.13;23.50;;;;;;;-7.57;100.00;65955.75;4984245;28;20082;-82
2022/12/15 03:21:47;;;;;;;35.33;21.75;;;;;;;-7.63;100.00;65949.63;4987100;28;20038;-80
2022/12/15 03:24:12;;;;;;;33.45;21.40;;;;;;;-7.62;100.00;65945.59;4977444;28;20526;-81
2022/12/15 03:26:37;;;;;;;32.72;22.88;;;;;;;-7.60;100.00;65952.97;4970062;28;20447;-80
2022/12/15 03:29:03;;;;;;;34.85;21.67;;;;;;;-7.64;100.00;65943.34;4976094;28;20037;-81
2022/12/15 03:31:28;;;;;;;35.33;22.40;;;;;;;-7.50;100.00;65964.16;4989789;28;20038;-81
2022/12/15 03:33:54;;;;;;;37.13;24.63;;;;;;;-7.48;100.00;65963.22;4989328;28;20035;-80
2022/12/15 03:36:21;;;;;;;32.83;23.70;;;;;;;;;;4989794;28;20034;-80
2022/12/15 03:38:47;;;;;;;32.67;22.15;;;;;;;-7.43;100.00;65968.81;4990211;28;20054;-80
2022/12/15 03:41:12;;;;;;;32.65;20.73;;;;;;;-7.58;100.00;65957.78;4988942;28;20050;-82
2022/12/15 03:43:38;;;;;;;33.42;22.70;;;;;;;-7.66;100.00;65943.69;4993098;28;20038;-80
2022/12/15 03:46:03;;;;;;;32.95;20.08;;;;;;;-7.71;100.00;65940.69;4988515;28;20042;-81
2022/12/15 03:48:29;;;;;;;35.63;20.95;;;;;;;-7.74;100.00;65937.34;4987321;28;20498;-80
2022/12/15 03:50:54;;;;;;;34.90;23.85;;;;;;;-7.63;100.00;65949.63;4989316;28;20474;-81
2022/12/15 03:53:19;;;;;;;33.92;20.50;;;;;;;-7.58;100.00;65957.78;4990735;28;20043;-81
2022/12/15 03:55:45;;;;;;;33.88;22.67;;;;;;;-7.67;100.00;65945.16;4983105;28;20038;-81
2022/12/15 03:58:10;;;;;;;35.08;23.52;;;;;;;-7.61;100.00;65948.72;4989901;28;20093;-81
2022/12/15 04:00:35;;;;;;;31.30;21.52;;;;;;;-7.78;100.00;65932.91;4988539;28;20038;-81
2022/12/15 04:03:01;;;;;;;34.38;23.52;;;;;;;-7.68;100.00;65944.06;4990123;28;20085;-81
2022/12/15 04:05:29;;;;;;;30.58;19.52;;;;;;;-7.64;100.00;65945.38;4994592;28;20038;-82
2022/12/15 04:07:56;;;;;;;32.30;21.08;;;;;;;-7.72;100.00;65937.00;5003931;28;20506;-80
2022/12/15 04:10:23;;;;;;;33.88;23.00;;;;;;;-7.67;100.00;65945.16;4989282;28;20066;-81
2022/12/15 04:12:55;;;;;;;35.78;22.80;;;;;;;-7.59;100.00;65948.94;4987722;28;20057;-81
2022/12/15 04:15:20;;;;;;;29.40;21.13;;;;;;;-7.62;100.00;65953.34;4974509;28;20050;-80
2022/12/15 04:17:46;;;;;;;27.35;17.10;;;;;;;-7.82;100.00;65925.84;4988140;28;20091;-80
2022/12/15 04:20:11;;;;;;;29.70;20.40;;;;;;;-7.78;100.00;65935.47;5003491;28;20069;-79
2022/12/15 04:22:42;;;;;;;33.88;23.15;;;;;;;-7.81;100.00;65926.97;4988477;28;20046;-81
2022/12/15 05:33:37;;;;;;;34.78;24.33;;;;;;;-7.01;100.00;66014.06;4989479;28;20508;-80
2022/12/15 05:36:03;;;;;;;38.72;22.27;;;;;;;-7.00;100.00;66015.72;4986999;28;20046;-80
2022/12/15 05:38:28;;;;;;;37.60;25.08;;;;;;;-6.98;100.00;66020.53;4989595;28;20417;-84
2022/12/15 05:40:57;;;;;;;40.33;25.90;;;;;;;-6.97;100.00;66021.09;4980260;28;20034;-79
2022/12/15 05:43:22;;;;;;;39.60;24.33;;;;;;;-6.92;100.00;66016.34;4971917;28;20673;-81
2022/12/15 05:45:48;;;;;;;38.05;22.85;;;;;;;-6.87;100.00;66027.09;4982640;28;20062;-80
2022/12/15 05:48:13;;;;;;;35.08;21.25;;;;;;;-6.86;100.00;66028.22;4977660;28;20050;-80
2022/12/15 05:50:39;;;;;;;32.47;22.65;;;;;;;-6.87;100.00;66032.28;4991264;28;20042;-80
2022/12/15 05:53:04;;;;;;;38.55;23.83;;;;;;;-6.85;100.00;66034.50;4992530;28;20042;-78
2022/12/15 05:55:29;;;;;;;42.72;28.75;;;;;;;-6.78;100.00;66041.78;4992247;28;20038;-79
2022/12/15 05:57:55;;;;;;;38.20;23.42;;;;;;;-6.80;100.00;66034.91;4994222;28;20062;-78
2022/12/15 06:00:20;;;;;;;36.33;24.17;;;;;;;-6.75;100.00;66043.09;4994992;28;20038;-79
2022/12/15 06:02:46;;;;;;;33.08;20.88;;;;;;;-6.75;100.00;66045.69;4995350;28;20045;-79
2022/12/15 06:05:11;;;;;;;33.92;23.05;;;;;;;-6.71;100.00;66044.41;4994586;28;20042;-80
2022/12/15 06:07:37;;;;;;;31.40;20.58;;;;;;;-6.72;100.00;66049.03;4997194;28;20125;-81
2022/12/15 06:10:04;;;;;;;30.58;19.65;;;;;;;-6.70;100.00;66051.25;4995273;28;20058;-77
2022/12/15 06:12:29;;;;;;;33.78;20.25;;;;;;;-6.68;100.00;66050.91;4996174;28;20034;-80
2022/12/15 06:14:54;;;;;;;45.28;27.60;;;;;;;-6.67;100.00;66052.03;4994181;28;20129;-79
2022/12/15 06:17:20;;;;;;;35.35;24.10;;;;;;;-6.68;100.00;66053.47;4993222;28;20069;-78
2022/12/15 06:19:45;;;;;;;38.75;25.85;;;;;;;-6.67;100.00;66048.88;4993163;28;20046;-78
2022/12/15 06:22:11;;;;;;;36.58;23.52;;;;;;;-6.69;100.00;66047.19;4999714;28;20042;-80
2022/12/15 06:24:36;;;;;;;33.25;20.52;;;;;;;-6.65;100.00;66051.09;4993611;28;20166;-79
2022/12/15 06:27:02;;;;;;;42.15;27.42;;;;;;;-6.66;100.00;66053.13;4994733;28;20113;-81
2022/12/15 06:29:27;;;;;;;39.63;26.80;;;;;;;-6.68;100.00;66056.06;4994968;28;20030;-81
2022/12/15 06:31:53;;;;;;;41.17;26.98;;;;;;;-6.69;100.00;66049.78;4993740;28;20078;-79
2022/12/15 06:34:18;;;;;;;39.80;28.10;;;;;;;-6.68;100.00;66050.91;4991991;28;20046;-80
2022/12/15 06:36:44;;;;;;;39.15;27.48;;;;;;;-6.67;100.00;66048.88;4992838;28;20042;-80
2022/12/15 06:39:14;;;;;;;41.45;25.88;;;;;;;-6.69;100.00;66049.78;4991099;28;20043;-81
2022/12/15 06:41:41;;;;;;;40.03;26.40;;;;;;;-6.68;100.00;66053.47;4992042;28;20490;-80
2022/12/15 06:44:06;;;;;;;38.55;24.90;;;;;;;-6.70;100.00;66046.09;4990476;28;20041;-79
2022/12/15 06:46:33;;;;;;;34.47;21.83;;;;;;;-6.71;100.00;66044.97;4995945;28;20039;-81
2022/12/15 06:48:59;;;;;;;40.15;26.75;;;;;;;-6.67;100.00;66048.88;4990952;28;20121;-78
2022/12/15 06:51:26;;;;;;;39.38;27.58;;;;;;;-6.68;100.00;66052.94;4989808;28;20157;-80
2022/12/15 06:53:55;;;;;;;40.97;28.15;;;;;;;-6.66;100.00;66055.16;4993179;28;20046;-79
2022/12/15 06:56:34;;;;;;;37.75;25.33;;;;;;;-6.68;100.00;66047.75;4990070;28;20034;-80
2022/12/15 06:59:02;;;;;;;40.17;28.75;;;;;;;-6.70;100.00;66048.09;4988071;28;20042;-78
2022/12/15 07:01:28;;;;;;;46.30;33.20;;;;;;;-6.70;100.00;66051.25;4991151;28;20556;-79
2022/12/15 07:03:54;;;;;;;44.90;28.85;;;;;;;-6.67;100.00;66049.44;4991449;28;20038;-80
2022/12/15 07:06:19;;;;;;;42.55;26.83;;;;;;;-6.68;100.00;66053.47;4993900;28;20043;-77
2022/12/15 07:08:51;;;;;;;42.05;26.98;;;;;;;-6.69;100.00;66046.66;5001282;28;20046;-80
2022/12/15 07:11:16;;;;;;;43.15;30.80;;;;;;;-6.70;100.00;66046.09;4989576;28;20045;-79
2022/12/15 07:13:42;;;;;;;41.45;29.27;;;;;;;-6.71;100.00;66044.41;4990850;28;20478;-78
2022/12/15 07:16:10;;;;;;;45.22;28.50;;;;;;;-6.76;100.00;66041.97;4991713;28;20044;-81
2022/12/15 07:18:35;;;;;;;39.67;27.58;;;;;;;-6.80;100.00;66037.50;4993818;28;20038;-78
2022/12/15 07:21:05;;;;;;;39.03;24.83;;;;;;;-6.76;100.00;66038.81;4992865;28;20490;-80
2022/12/15 07:23:32;;;;;;;47.13;30.42;;;;;;;-6.75;100.00;66040.50;4997810;28;20093;-79
2022/12/15 07:25:57;;;;;;;49.65;36.63;;;;;;;-6.72;100.00;66046.44;5000775;28;20049;-78
2022/12/15 07:28:22;;;;;;;43.03;24.50;;;;;;;-6.70;100.00;66045.50;4999205;28;20039;-79
2022/12/15 07:30:48;;;;;;;49.58;34.13;;;;;;;-6.72;100.00;66048.47;4998971;28;20106;-78
2022/12/15 07:33:14;;;;;;;56.17;36.58;;;;;;;-6.77;100.00;66037.69;5003840;28;20049;-79
2022/12/15 07:35:40;;;;;;;49.75;33.03;;;;;;;-6.74;100.00;66041.06;5001926;28;20039;-78
2022/12/15 07:38:06;;;;;;;59.25;37.88;;;;;;;-6.68;100.00;66048.31;5003002;28;20046;-79
2022/12/15 07:40:32;;;;;;;53.05;35.30;;;;;;;-6.69;100.00;66049.22;5002735;28;20560;-80
2022/12/15 07:42:57;;;;;;;53.70;35.17;;;;;;;-6.71;100.00;66047.00;5001918;28;20057;-81
2022/12/15 07:45:23;;;;;;;48.17;26.00;;;;;;;-6.71;100.00;66047.53;5000019;28;20046;-77
2022/12/15 07:47:49;;;;;;;52.92;36.20;;;;;;;-6.70;100.00;66046.09;4996669;28;20106;-79
2022/12/15 07:50:15;;;;;;;56.13;35.00;;;;;;;-6.61;100.00;66058.72;4993522;28;20042;-78
2022/12/15 07:52:42;;;;;;;45.97;29.00;;;;;;;-6.64;100.00;66057.97;4988150;28;20034;-77
2022/12/15 07:55:07;;;;;;;53.45;32.78;;;;;;;-6.59;100.00;66058.38;4997133;28;20038;-77
2022/12/15 07:57:32;;;;;;;53.22;32.67;;;;;;;-6.61;100.00;66060.75;4990396;28;20041;-77
2022/12/15 07:59:58;;;;;;;61.75;40.58;;;;;;;-6.57;100.00;66059.50;4989698;28;20046;-81
2022/12/15 08:02:23;;;;;;;54.50;33.95;;;;;;;-6.57;100.00;66060.03;4993408;28;20102;-77
2022/12/15 08:04:48;;;;;;;53.63;36.70;;;;;;;-6.58;100.00;66058.94;4992373;28;20132;-79
2022/12/15 08:07:14;;;;;;;49.85;34.15;;;;;;;-6.61;100.00;66058.16;4992857;28;20034;-82
2022/12/15 08:09:39;;;;;;;58.92;38.58;;;;;;;-6.59;100.00;66060.41;4989460;28;20102;-78
2022/12/15 08:12:05;;;;;;;59.75;38.50;;;;;;;-6.54;100.00;66065.97;4990157;28;20035;-78
2022/12/15 08:14:31;;;;;;;48.55;29.15;;;;;;;-6.52;100.00;66070.25;4994983;28;20102;-82
2022/12/15 08:16:56;;;;;;;54.42;26.20;;;;;;;-6.51;100.00;66068.78;4993532;28;20046;-78
2022/12/15 08:19:22;;;;;;;57.88;37.13;;;;;;;-6.48;100.00;66077.88;4999330;28;20056;-75
2022/12/15 08:21:47;;;;;;;59.30;38.95;;;;;;;-6.45;100.00;66073.44;4997213;28;20067;-79
2022/12/15 08:24:13;;;;;;;55.40;35.42;;;;;;;-6.40;100.00;66084.22;5001117;28;20042;-80
2022/12/15 08:26:40;;;;;;;62.88;43.47;;;;;;;-6.41;100.00;66079.97;4996888;28;20038;-75
2022/12/15 08:29:10;;;;;;;52.30;32.38;;;;;;;-6.32;100.00;66086.88;5008080;28;20098;-78
2022/12/15 08:31:35;;;;;;;59.92;42.63;;;;;;;-6.29;100.00;66095.97;5008929;28;20023;-77
2022/12/15 08:34:02;;;;;;;52.58;34.38;;;;;;;-6.25;100.00;66100.41;5015102;28;20053;-74
2022/12/15 08:36:27;;;;;;;56.53;32.45;;;;;;;-6.22;100.00;66100.63;5012591;28;20042;-79
2022/12/15 08:38:56;;;;;;;55.90;34.25;;;;;;;-6.19;100.00;66111.75;5014206;28;20030;-79
2022/12/15 08:41:27;;;;;;;58.47;35.08;;;;;;;-6.13;100.00;66113.84;5014391;28;20041;-76
2022/12/15 08:43:53;;;;;;;54.40;33.90;;;;;;;-6.06;100.00;66115.94;5012270;28;20038;-77
2022/12/15 08:46:21;;;;;;;54.05;33.90;;;;;;;-6.01;100.00;66126.13;4994119;28;20038;-79
2022/12/15 08:48:48;;;;;;;52.05;35.60;;;;;;;-5.96;100.00;66129.13;4992101;28;20490;-77
2022/12/15 08:51:14;;;;;;;56.15;35.45;;;;;;;-5.90;100.00;66135.81;4994436;28;20437;-79
2022/12/15 08:53:39;;;;;;;59.90;39.03;;;;;;;-5.85;100.00;66138.81;4994082;28;20092;-78
2022/12/15 08:56:05;;;;;;;53.45;31.88;;;;;;;;;;4994123;28;20413;-77
2022/12/15 08:58:30;;;;;;;58.40;36.63;;;;;;;-5.76;100.00;66148.88;4993656;28;20077;-80
2022/12/15 09:01:04;;;;;;;53.95;33.40;;;;;;;-5.70;100.00;66160.78;4991325;28;20069;-75
2022/12/15 09:03:29;;;;;;;57.85;35.33;;;;;;;-5.63;100.00;66168.06;4993366;28;20034;-76
2022/12/15 09:05:56;;;;;;;60.03;40.67;;;;;;;-5.55;100.00;66173.84;4991879;28;20712;-79
2022/12/15 09:08:23;;;;;;;52.22;32.10;;;;;;;-5.51;100.00;66184.06;4993462;28;20038;-75
2022/12/15 09:10:49;;;;;;;52.47;32.65;;;;;;;-5.42;100.00;66185.78;4993950;28;20037;-78
2022/12/15 09:13:14;;;;;;;53.08;36.28;;;;;;;-5.36;100.00;66191.94;5005445;28;20034;-77
2022/12/15 09:15:42;;;;;;;49.85;28.40;;;;;;;-5.28;100.00;66203.50;4990131;28;20034;-78
2022/12/15 09:18:07;;;;;;;58.90;39.80;;;;;;;-5.22;100.00;66210.75;4993727;28;20050;-76
2022/12/15 09:20:33;;;;;;;47.13;30.10;;;;;;;-5.18;100.00;66214.13;4997699;28;20037;-79
2022/12/15 09:22:58;;;;;;;59.97;41.28;;;;;;;;;;4993638;28;20053;-79
2022/12/15 09:25:23;;;;;;;55.92;36.17;;;;;;;-5.04;100.00;66230.34;4999548;28;20030;-77
2022/12/15 09:27:49;;;;;;;48.10;32.20;;;;;;;-4.97;100.00;66237.63;4998471;28;20155;-79
2022/12/15 09:30:14;;;;;;;51.58;33.47;;;;;;;-4.90;100.00;66245.44;4994500;28;20034;-78
2022/12/15 09:32:40;;;;;;;55.15;35.00;;;;;;;-4.81;100.00;66260.72;4991698;28;20042;-75
2022/12/15 09:35:05;;;;;;;53.13;38.05;;;;;;;-4.72;100.00;66265.03;4986169;28;20157;-79
2022/12/15 09:37:31;;;;;;;51.45;35.47;;;;;;;-4.68;100.00;66266.38;4992059;28;20042;-78
2022/12/15 09:39:56;;;;;;;52.10;36.97;;;;;;;-4.63;100.00;66275.13;4990077;28;20061;-79
2022/12/15 09:42:27;;;;;;;48.22;29.45;;;;;;;-4.55;100.00;66286.66;4988606;28;20052;-79
2022/12/15 09:45:06;;;;;;;53.75;38.38;;;;;;;-4.46;100.00;66293.59;4976885;28;20452;-83
2022/12/15 09:47:57;;;;;;;44.28;27.60;;;;;;;-4.38;100.00;66301.97;4991620;28;20069;-79
2022/12/15 09:50:35;;;;;;;46.20;29.35;;;;;;;-4.33;100.00;66305.53;4959639;28;20570;-78
2022/12/15 09:53:02;;;;;;;53.65;34.92;;;;;;;-4.22;100.00;66322.50;4947485;28;20566;-76
2022/12/15 09:55:31;;;;;;;53.60;36.67;;;;;;;-4.15;100.00;66327.19;4959821;28;20043;-78
2022/12/15 09:58:07;;;;;;;55.33;37.13;;;;;;;-4.06;100.00;66334.66;4951801;28;20746;-80
2022/12/15 10:00:58;;;;;;;48.75;32.78;;;;;;;-3.99;100.00;66342.50;4954156;28;20313;-79
2022/12/15 10:03:42;;;;;;;51.45;31.52;;;;;;;-3.93;100.00;66351.81;4910355;29;21495;-79
2022/12/15 10:06:17;;;;;;;44.85;28.40;;;;;;;-3.90;100.00;66352.59;4957807;28;20042;-81
2022/12/15 10:08:52;;;;;;;44.85;28.58;;;;;;;;;;4962270;28;20569;-82
2022/12/15 10:11:20;;;;;;;50.40;33.90;;;;;;;-3.78;100.00;66364.91;4946903;28;20043;-79
2022/12/15 10:13:55;;;;;;;48.87;32.60;;;;;;;-3.72;100.00;66374.22;4947682;28;20067;-80
2022/12/15 10:16:27;;;;;;;50.97;34.60;;;;;;;-3.69;100.00;66375.00;4976295;28;20046;-80
2022/12/15 10:19:10;;;;;;;51.30;31.67;;;;;;;-3.65;100.00;66382.09;4997316;28;20065;-80
2022/12/15 10:21:36;;;;;;;47.28;31.25;;;;;;;-3.56;100.00;66389.56;4980820;28;20066;-82
2022/12/15 10:24:21;;;;;;;49.88;32.88;;;;;;;-3.49;100.00;66396.84;5002679;28;20069;-82
2022/12/15 10:27:17;;;;;;;56.28;37.50;;;;;;;-3.42;100.00;66407.28;4988031;28;20524;-80
2022/12/15 10:29:45;;;;;;;44.50;28.02;;;;;;;-3.44;100.00;66405.59;4988350;28;20065;-79
2022/12/15 10:32:29;;;;;;;49.00;34.72;;;;;;;-3.37;100.00;66404.53;4990188;28;20046;-80
2022/12/15 10:34:55;;;;;;;49.67;37.38;;;;;;;-3.30;100.00;66418.13;4984917;28;20046;-78
2022/12/15 10:37:20;;;;;;;49.35;31.20;;;;;;;-3.24;100.00;66427.47;4990297;28;20061;-79
2022/12/15 10:39:47;;;;;;;41.30;23.70;;;;;;;;;;4985220;28;20042;-82
2022/12/15 10:42:23;;;;;;;48.38;36.15;;;;;;;-3.00;100.00;66450.63;4985217;28;20048;-80
2022/12/15 10:44:54;;;;;;;43.97;27.95;;;;;;;-2.92;100.00;66462.22;4983924;28;20050;-78
2022/12/15 10:47:24;;;;;;;47.28;31.00;;;;;;;-2.82;100.00;66470.25;5000924;28;20046;-79
2022/12/15 10:49:51;;;;;;;45.45;32.90;;;;;;;-2.77;100.00;66475.88;4984088;28;20073;-79
2022/12/15 10:52:35;;;;;;;45.92;33.00;;;;;;;-2.73;100.00;66482.97;4983486;28;20720;-80
2022/12/15 10:55:00;;;;;;;45.08;29.55;;;;;;;;;;4980222;28;20046;-81
2022/12/15 10:57:30;;;;;;;48.58;32.90;;;;;;;-2.60;100.00;66494.38;4986679;28;20046;-79
2022/12/15 11:00:14;;;;;;;39.65;25.95;;;;;;;-2.55;100.00;66500.53;4986231;28;20137;-80
2022/12/15 11:02:40;;;;;;;38.88;23.52;;;;;;;-2.49;100.00;66506.72;4977250;28;20050;-81
2022/12/15 11:05:15;;;;;;;42.25;31.20;;;;;;;-2.42;100.00;66509.34;4982540;28;20450;-80
2022/12/15 11:07:47;;;;;;;47.88;28.52;;;;;;;-2.37;100.00;66519.63;4988417;28;20096;-79
2022/12/15 11:10:19;;;;;;;43.83;29.58;;;;;;;-2.26;100.00;66531.97;4957559;28;20038;-81
2022/12/15 11:12:57;;;;;;;44.33;32.65;;;;;;;-2.17;100.00;66541.50;4989238;28;20076;-80
2022/12/15 11:15:22;;;;;;;42.53;29.60;;;;;;;-2.08;100.00;66552.16;4975410;28;20053;-79
2022/12/15 11:18:00;;;;;;;46.95;33.45;;;;;;;;;;4988840;28;20034;-78
2022/12/15 11:20:36;;;;;;;37.60;24.90;;;;;;;-1.99;100.00;66561.69;4973455;28;20692;-80
2022/12/15 11:23:12;;;;;;;38.08;24.20;;;;;;;-1.93;100.00;66571.03;4990195;28;20058;-79
2022/12/15 11:25:42;;;;;;;39.53;27.60;;;;;;;;;;4990017;28;20121;-79
2022/12/15 11:28:17;;;;;;;46.83;32.08;;;;;;;-1.67;100.00;66591.25;4994247;28;20098;-79
2022/12/15 11:30:56;;;;;;;40.67;25.88;;;;;;;-1.68;100.00;66595.38;4978031;28;20201;-79
2022/12/15 11:33:22;;;;;;;45.80;29.77;;;;;;;-1.56;100.00;66610.88;4983680;28;20047;-78
2022/12/15 11:36:06;;;;;;;40.58;27.35;;;;;;;;;;4990918;28;20494;-80
2022/12/15 11:38:45;;;;;;;42.92;29.25;;;;;;;-1.39;100.00;66627.38;4992456;28;20038;-80
2022/12/15 11:41:43;;;;;;;39.35;28.08;;;;;;;-1.31;100.00;66638.97;5004267;28;20136;-79
2022/12/15 11:44:29;;;;;;;39.10;25.95;;;;;;;-1.20;100.00;66648.72;5001459;28;20062;-79
2022/12/15 11:46:58;;;;;;;42.22;31.83;;;;;;;;;;4991757;28;20038;-79
2022/12/15 11:49:32;;;;;;;43.55;30.23;;;;;;;-1.00;100.00;66675.28;4991816;28;20034;-80
2022/12/15 11:51:58;;;;;;;42.58;29.05;;;;;;;-0.85;100.00;66686.34;5015995;23;20069;-85
2022/12/15 11:54:38;;;;;;;44.13;28.23;;;;;;;-0.77;100.00;66695.31;4994139;28;20042;-85
2022/12/15 11:57:37;;;;;;;45.30;31.17;;;;;;;-0.75;100.00;66692.34;4994031;28;20038;-84
2022/12/15 12:00:14;;;;;;;46.15;32.90;;;;;;;-0.63;100.00;66713.09;4994019;28;20649;-85
2022/12/15 12:02:54;;;;;;;44.83;31.45;;;;;;;;;;4992697;28;20050;-85
2022/12/15 12:05:35;;;;;;;40.53;26.92;;;;;;;-0.51;100.00;66723.97;4992725;28;20042;-85
2022/12/15 12:08:03;;;;;;;39.08;28.48;;;;;;;;;;4994018;28;20085;-85
2022/12/15 12:10:42;;;;;;;40.38;25.40;;;;;;;-0.54;100.00;66721.16;5004235;28;20042;-85
2022/12/15 12:13:26;;;;;;;42.30;29.35;;;;;;;;;;5008272;28;20058;-85
2022/12/15 12:16:23;;;;;;;36.70;25.02;;;;;;;-0.33;100.00;66744.19;4976450;28;20034;-85
2022/12/15 12:19:10;;;;;;;37.47;25.98;;;;;;;-0.37;100.00;66734.50;4987033;28;20444;-85
2022/12/15 12:21:43;;;;;;;37.20;22.98;;;;;;;-0.32;100.00;66745.31;4989824;28;20138;-85
2022/12/15 12:24:19;;;;;;;40.60;24.40;;;;;;;-0.31;99.62;66746.47;4987158;28;20106;-85
2022/12/15 12:26:57;;;;;;;38.42;27.45;;;;;;;-0.21;99.48;66751.91;4987840;28;20453;-85
2022/12/15 12:29:33;;;;;;;37.65;28.60;;;;;;;;;;4987708;28;20042;-83
2022/12/15 12:32:20;;;;;;;42.95;30.38;;;;;;;-0.15;99.10;66763.31;4989144;28;20073;-83
2022/12/15 12:34:57;;;;;;;37.38;27.90;;;;;;;-0.07;99.18;66767.06;4976083;28;20085;-83
2022/12/15 12:37:33;;;;;;;37.30;26.08;;;;;;;-0.01;98.56;66774.38;4986394;28;20035;-83
2022/12/15 12:40:17;;;;;;;44.20;31.52;;;;;;;0.07;98.70;66788.06;4989986;28;20037;-83
2022/12/15 12:42:52;;;;;;;40.33;28.98;;;;;;;0.16;98.74;66800.78;4991077;28;20039;-83
2022/12/15 12:45:18;;;;;;;36.65;21.00;;;;;;;;;;4986306;28;20081;-83
2022/12/15 12:47:49;;;;;;;38.88;26.98;;;;;;;0.26;97.87;66803.03;4989192;28;20157;-83
2022/12/15 12:50:30;;;;;;;38.47;25.23;;;;;;;;;;4989454;28;20737;-83
2022/12/15 12:53:01;;;;;;;37.97;26.85;;;;;;;;;;4986516;28;20046;-83
2022/12/15 12:55:35;;;;;;;34.78;24.02;;;;;;;0.35;97.06;66818.97;4989093;28;20567;-84
2022/12/15 12:58:00;;;;;;;35.10;23.73;;;;;;;0.35;96.68;66818.97;4988643;28;20097;-83
2022/12/15 13:00:28;;;;;;;36.47;25.23;;;;;;;0.34;96.91;66817.28;4991144;28;20042;-83
2022/12/15 13:03:16;;;;;;;37.60;23.50;;;;;;;0.42;97.40;66821.06;4987246;28;20054;-84
2022/12/15 13:05:42;;;;;;;38.50;28.55;;;;;;;0.44;97.35;66828.53;4986637;28;20038;-84
2022/12/15 13:08:08;;;;;;;37.33;22.13;;;;;;;0.51;97.27;66836.41;4989663;28;20034;-84
2022/12/15 13:10:57;;;;;;;39.63;27.40;;;;;;;0.48;98.28;66833.03;5003230;28;20046;-83
2022/12/15 13:13:28;;;;;;;;;;;;;;;0.60;98.03;66849.16;4985352;28;20057;-83
2022/12/15 13:16:24;;;;;;;37.83;25.77;;;;;;;0.54;98.82;66839.22;4988856;28;19933;-83
2022/12/15 13:19:03;;;;;;;38.72;27.58;;;;;;;;;;4979591;28;20038;-84
2022/12/15 13:21:43;;;;;;;;;;;;;;;0.38;97.01;66821.78;4988507;28;20038;-83
2022/12/15 13:24:24;;;;;;;34.00;19.80;;;;;;;0.26;97.59;66808.28;4993230;28;19922;-83
2022/12/15 13:26:49;;;;;;;40.72;26.33;;;;;;;0.41;98.87;66827.78;4992886;28;20038;-83
2022/12/15 13:29:20;;;;;;;39.25;27.15;;;;;;;0.48;98.45;66832.47;5008551;28;20567;-83
2022/12/15 13:31:48;;;;;;;37.25;24.90;;;;;;;0.50;98.21;66835.28;4988818;28;20038;-83
2022/12/15 13:34:15;;;;;;;38.50;28.35;;;;;;;;;;4984992;28;20409;-83
2022/12/15 13:36:40;;;;;;;38.83;26.35;;;;;;;0.48;98.48;66827.22;4995247;28;20042;-83
2022/12/15 13:39:32;;;;;;;36.83;25.48;;;;;;;0.50;97.78;66835.28;4997043;28;20045;-83
2022/12/15 13:42:00;;;;;;;37.22;23.08;;;;;;;0.48;97.93;66832.47;4996464;28;20046;-84
2022/12/15 13:44:37;;;;;;;38.15;24.80;;;;;;;0.55;99.72;66840.91;4997135;28;20038;-84
2022/12/15 13:47:15;;;;;;;43.95;27.25;;;;;;;0.61;98.68;66847.09;5011567;28;20102;-83
2022/12/15 13:49:53;;;;;;;35.30;25.00;;;;;;;0.66;98.58;66855.34;4985144;28;20046;-83
2022/12/15 13:52:53;;;;;;;44.85;29.30;;;;;;;0.70;98.17;66859.28;4994461;28;20050;-84
2022/12/15 13:55:33;;;;;;;37.78;27.50;;;;;;;;;;4979994;28;20034;-84
2022/12/15 13:58:16;;;;;;;38.85;28.58;;;;;;;0.65;98.46;66846.34;5000680;28;20046;-84
2022/12/15 14:00:52;;;;;;;36.17;22.73;;;;;;;;;;4998210;28;20042;-83